sensor_id;sensor_type;location;lat;lon;timestamp;pressure;altitude;pressure_sealevel;temperature;humidity
3096;BME280;1558;42.700;23.360;2024-03-23T00:54:54;95381.56;;;4.55;87.48
3096;BME280;1558;42.700;23.360;2024-03-23T00:57:21;95380.19;;;4.58;87.21
3096;BME280;1558;42.700;23.360;2024-03-23T00:59:48;95373.53;;;4.55;87.14
3096;BME280;1558;42.700;23.360;2024-03-23T01:02:14;95377.66;;;4.48;87.47
3096;BME280;1558;42.700;23.360;2024-03-23T01:04:41;95376.31;;;4.32;87.51
3096;BME280;1558;42.700;23.360;2024-03-23T01:07:07;95386.41;;;4.35;87.97
3096;BME280;1558;42.700;23.360;2024-03-23T01:09:34;95368.00;;;4.33;88.45
3096;BME280;1558;42.700;23.360;2024-03-23T01:12:03;95337.88;;;4.14;88.43
3096;BME280;1558;42.700;23.360;2024-03-23T01:14:30;95372.84;;;4.31;88.08
3096;BME280;1558;42.700;23.360;2024-03-23T01:16:56;95371.53;;;4.29;88.45
3096;BME280;1558;42.700;23.360;2024-03-23T01:19:23;95372.91;;;4.26;88.23
3096;BME280;1558;42.700;23.360;2024-03-23T01:21:49;95376.09;;;4.28;88.73
3096;BME280;1558;42.700;23.360;2024-03-23T01:24:16;95371.47;;;4.15;88.21
3096;BME280;1558;42.700;23.360;2024-03-23T01:26:42;95375.59;;;4.07;88.58
3096;BME280;1558;42.700;23.360;2024-03-23T01:29:11;95377.47;;;4.07;89.00
3096;BME280;1558;42.700;23.360;2024-03-23T01:31:37;95338.50;;;3.69;89.83
3096;BME280;1558;42.700;23.360;2024-03-23T01:34:04;95381.13;;;3.92;89.92
3096;BME280;1558;42.700;23.360;2024-03-23T01:36:30;95373.91;;;3.93;90.61
3096;BME280;1558;42.700;23.360;2024-03-23T01:38:57;95374.72;;;3.93;91.49
3096;BME280;1558;42.700;23.360;2024-03-23T01:41:24;95362.50;;;3.69;91.22
3096;BME280;1558;42.700;23.360;2024-03-23T01:43:51;95330.03;;;3.19;92.11
3096;BME280;1558;42.700;23.360;2024-03-23T01:46:19;95377.16;;;3.48;93.47
3096;BME280;1558;42.700;23.360;2024-03-23T01:48:46;95377.00;;;3.39;94.53
3096;BME280;1558;42.700;23.360;2024-03-23T01:51:13;95371.16;;;3.37;95.00
3096;BME280;1558;42.700;23.360;2024-03-23T01:53:40;95372.72;;;3.38;95.24
3096;BME280;1558;42.700;23.360;2024-03-23T01:56:06;95375.66;;;3.41;96.45
3096;BME280;1558;42.700;23.360;2024-03-23T01:58:33;95374.63;;;3.37;96.81
3096;BME280;1558;42.700;23.360;2024-03-23T02:00:59;95380.22;;;3.36;97.61
3096;BME280;1558;42.700;23.360;2024-03-23T02:03:28;95373.03;;;3.36;97.89
3096;BME280;1558;42.700;23.360;2024-03-23T02:05:54;95306.16;;;2.86;98.00
3096;BME280;1558;42.700;23.360;2024-03-23T02:08:23;95376.50;;;3.37;99.31
3096;BME280;1558;42.700;23.360;2024-03-23T02:10:49;95382.94;;;3.55;99.32
3096;BME280;1558;42.700;23.360;2024-03-23T02:13:18;95375.97;;;3.59;98.43
3096;BME280;1558;42.700;23.360;2024-03-23T02:15:45;95373.53;;;3.62;98.06
3096;BME280;1558;42.700;23.360;2024-03-23T02:18:12;95372.78;;;3.57;98.35
3096;BME280;1558;42.700;23.360;2024-03-23T02:20:40;95375.88;;;3.64;97.89
3096;BME280;1558;42.700;23.360;2024-03-23T02:23:14;95387.25;;;3.51;97.00
3096;BME280;1558;42.700;23.360;2024-03-23T02:25:40;95380.28;;;3.31;98.12
3096;BME280;1558;42.700;23.360;2024-03-23T02:28:08;95397.13;;;3.26;99.18
3096;BME280;1558;42.700;23.360;2024-03-23T02:30:34;95384.88;;;3.25;99.84
3096;BME280;1558;42.700;23.360;2024-03-23T02:33:01;95369.41;;;3.04;100.00
3096;BME280;1558;42.700;23.360;2024-03-23T02:35:27;95382.59;;;3.14;100.00
3096;BME280;1558;42.700;23.360;2024-03-23T02:37:55;95389.53;;;3.15;100.00
3096;BME280;1558;42.700;23.360;2024-03-23T02:40:24;95213.88;;;2.00;100.00
3096;BME280;1558;42.700;23.360;2024-03-23T02:42:52;95388.63;;;3.24;100.00
3096;BME280;1558;42.700;23.360;2024-03-23T02:45:18;95372.34;;;3.26;100.00
3096;BME280;1558;42.700;23.360;2024-03-23T02:47:45;95363.38;;;3.17;100.00
3096;BME280;1558;42.700;23.360;2024-03-23T02:50:11;95383.19;;;3.34;100.00
3096;BME280;1558;42.700;23.360;2024-03-23T02:52:40;95372.03;;;3.32;100.00
3096;BME280;1558;42.700;23.360;2024-03-23T02:55:07;95375.75;;;3.31;100.00
3096;BME280;1558;42.700;23.360;2024-03-23T02:57:36;95376.44;;;3.18;100.00
3096;BME280;1558;42.700;23.360;2024-03-23T03:00:02;95376.69;;;3.17;100.00
3096;BME280;1558;42.700;23.360;2024-03-23T03:02:29;95370.19;;;3.04;100.00
3096;BME280;1558;42.700;23.360;2024-03-23T03:04:55;95377.19;;;2.95;100.00
3096;BME280;1558;42.700;23.360;2024-03-23T03:07:23;95380.53;;;2.82;100.00
3096;BME280;1558;42.700;23.360;2024-03-23T03:09:49;95375.75;;;2.79;100.00
3096;BME280;1558;42.700;23.360;2024-03-23T03:12:16;95379.59;;;2.68;100.00
3096;BME280;1558;42.700;23.360;2024-03-23T03:14:43;95377.50;;;2.60;100.00
3096;BME280;1558;42.700;23.360;2024-03-23T03:17:11;95381.47;;;2.62;100.00
3096;BME280;1558;42.700;23.360;2024-03-23T03:19:37;95377.03;;;2.53;100.00
3096;BME280;1558;42.700;23.360;2024-03-23T03:22:04;95375.97;;;2.54;100.00
3096;BME280;1558;42.700;23.360;2024-03-23T03:24:30;95380.72;;;2.57;100.00
3096;BME280;1558;42.700;23.360;2024-03-23T03:26:58;95388.78;;;2.52;100.00
3096;BME280;1558;42.700;23.360;2024-03-23T03:29:24;95326.84;;;2.08;100.00
3096;BME280;1558;42.700;23.360;2024-03-23T03:31:52;95398.44;;;2.38;100.00
3096;BME280;1558;42.700;23.360;2024-03-23T03:34:18;95385.94;;;2.38;100.00
3096;BME280;1558;42.700;23.360;2024-03-23T03:36:46;95318.41;;;1.95;100.00
3096;BME280;1558;42.700;23.360;2024-03-23T03:39:12;95373.47;;;2.34;100.00
3096;BME280;1558;42.700;23.360;2024-03-23T03:41:39;95364.81;;;2.18;100.00
3096;BME280;1558;42.700;23.360;2024-03-23T03:44:05;95386.78;;;2.29;100.00
3096;BME280;1558;42.700;23.360;2024-03-23T03:46:32;95350.41;;;2.19;100.00
3096;BME280;1558;42.700;23.360;2024-03-23T03:49:00;95386.88;;;2.52;100.00
3096;BME280;1558;42.700;23.360;2024-03-23T03:51:27;95376.25;;;2.52;100.00
3096;BME280;1558;42.700;23.360;2024-03-23T03:53:53;95390.59;;;2.56;100.00
3096;BME280;1558;42.700;23.360;2024-03-23T03:56:20;95375.22;;;2.48;100.00
3096;BME280;1558;42.700;23.360;2024-03-23T03:58:48;95362.75;;;2.44;100.00
3096;BME280;1558;42.700;23.360;2024-03-23T04:01:15;95389.25;;;2.59;100.00
3096;BME280;1558;42.700;23.360;2024-03-23T04:03:42;95384.50;;;2.51;100.00
3096;BME280;1558;42.700;23.360;2024-03-23T04:06:11;95392.38;;;2.66;100.00
3096;BME280;1558;42.700;23.360;2024-03-23T04:08:37;95386.94;;;2.76;100.00
3096;BME280;1558;42.700;23.360;2024-03-23T04:11:04;95381.97;;;2.69;100.00
3096;BME280;1558;42.700;23.360;2024-03-23T04:13:30;95385.94;;;2.72;100.00
3096;BME280;1558;42.700;23.360;2024-03-23T04:15:57;95390.75;;;2.70;100.00
3096;BME280;1558;42.700;23.360;2024-03-23T04:18:23;95394.56;;;2.59;100.00
3096;BME280;1558;42.700;23.360;2024-03-23T04:20:50;95348.03;;;2.18;100.00
3096;BME280;1558;42.700;23.360;2024-03-23T04:23:18;95396.31;;;2.40;100.00
3096;BME280;1558;42.700;23.360;2024-03-23T04:25:45;95397.41;;;2.34;100.00
3096;BME280;1558;42.700;23.360;2024-03-23T04:28:11;95397.38;;;2.39;100.00
3096;BME280;1558;42.700;23.360;2024-03-23T04:30:38;95382.44;;;2.43;100.00
3096;BME280;1558;42.700;23.360;2024-03-23T04:33:04;95396.03;;;2.75;100.00
3096;BME280;1558;42.700;23.360;2024-03-23T04:35:32;95397.59;;;3.05;100.00
3096;BME280;1558;42.700;23.360;2024-03-23T04:37:58;95401.19;;;3.19;100.00
3096;BME280;1558;42.700;23.360;2024-03-23T04:40:27;95399.06;;;3.45;100.00
3096;BME280;1558;42.700;23.360;2024-03-23T04:42:54;95379.94;;;3.61;100.00
3096;BME280;1558;42.700;23.360;2024-03-23T04:45:21;95403.97;;;3.80;100.00
3096;BME280;1558;42.700;23.360;2024-03-23T04:47:48;95381.28;;;3.82;100.00
3096;BME280;1558;42.700;23.360;2024-03-23T04:50:15;95403.94;;;4.22;99.06
3096;BME280;1558;42.700;23.360;2024-03-23T04:52:42;95406.97;;;4.34;97.19
3096;BME280;1558;42.700;23.360;2024-03-23T04:55:10;95402.78;;;4.65;96.62
3096;BME280;1558;42.700;23.360;2024-03-23T04:57:39;95410.59;;;4.94;94.54
3096;BME280;1558;42.700;23.360;2024-03-23T05:00:06;95405.59;;;5.20;92.88
3096;BME280;1558;42.700;23.360;2024-03-23T05:02:43;95412.88;;;5.46;90.66
3096;BME280;1558;42.700;23.360;2024-03-23T05:05:11;95411.66;;;5.66;89.08
3096;BME280;1558;42.700;23.360;2024-03-23T05:07:37;95401.75;;;5.80;87.29
3096;BME280;1558;42.700;23.360;2024-03-23T05:10:05;95399.16;;;6.16;85.64
3096;BME280;1558;42.700;23.360;2024-03-23T05:12:31;95408.91;;;5.98;83.48
3096;BME280;1558;42.700;23.360;2024-03-23T05:14:59;95412.84;;;6.14;83.17
3096;BME280;1558;42.700;23.360;2024-03-23T05:17:26;95403.81;;;6.24;82.11
3096;BME280;1558;42.700;23.360;2024-03-23T05:19:56;95393.91;;;6.25;80.54
3096;BME280;1558;42.700;23.360;2024-03-23T05:22:23;95382.34;;;6.38;80.55
3096;BME280;1558;42.700;23.360;2024-03-23T05:24:50;95394.13;;;6.50;78.81
3096;BME280;1558;42.700;23.360;2024-03-23T05:27:16;95394.50;;;6.79;78.35
3096;BME280;1558;42.700;23.360;2024-03-23T05:29:43;95384.22;;;7.04;77.20
3096;BME280;1558;42.700;23.360;2024-03-23T05:32:10;95391.75;;;7.15;74.73
3096;BME280;1558;42.700;23.360;2024-03-23T05:34:38;95381.19;;;6.97;74.71
3096;BME280;1558;42.700;23.360;2024-03-23T05:37:04;95375.81;;;7.19;73.56
3096;BME280;1558;42.700;23.360;2024-03-23T05:39:31;95393.84;;;7.58;72.74
3096;BME280;1558;42.700;23.360;2024-03-23T05:41:57;95391.66;;;7.68;71.81
3096;BME280;1558;42.700;23.360;2024-03-23T05:44:24;95391.97;;;7.67;71.35
3096;BME280;1558;42.700;23.360;2024-03-23T05:46:50;95392.16;;;8.35;71.23
3096;BME280;1558;42.700;23.360;2024-03-23T05:49:19;95392.31;;;8.30;69.35
3096;BME280;1558;42.700;23.360;2024-03-23T05:51:47;95343.81;;;8.44;68.88
3096;BME280;1558;42.700;23.360;2024-03-23T05:54:14;95379.50;;;8.87;66.12
3096;BME280;1558;42.700;23.360;2024-03-23T05:56:40;95384.75;;;8.83;66.87
3096;BME280;1558;42.700;23.360;2024-03-23T05:59:08;95385.34;;;9.06;65.43
3096;BME280;1558;42.700;23.360;2024-03-23T06:01:35;95395.03;;;9.62;65.38
3096;BME280;1558;42.700;23.360;2024-03-23T06:04:02;95379.22;;;9.52;63.08
3096;BME280;1558;42.700;23.360;2024-03-23T06:06:30;95389.59;;;9.71;62.80
3096;BME280;1558;42.700;23.360;2024-03-23T06:08:57;95389.19;;;9.89;62.54
3096;BME280;1558;42.700;23.360;2024-03-23T06:11:24;95379.16;;;9.69;60.63
3096;BME280;1558;42.700;23.360;2024-03-23T06:13:52;95374.22;;;9.71;61.90
3096;BME280;1558;42.700;23.360;2024-03-23T06:16:19;95314.19;;;9.33;60.42
3096;BME280;1558;42.700;23.360;2024-03-23T06:18:49;95391.94;;;9.81;60.56
3096;BME280;1558;42.700;23.360;2024-03-23T06:21:16;95349.47;;;8.68;61.04
3096;BME280;1558;42.700;23.360;2024-03-23T06:23:44;95383.41;;;9.24;63.33
3096;BME280;1558;42.700;23.360;2024-03-23T06:26:18;95391.38;;;9.58;61.29
3096;BME280;1558;42.700;23.360;2024-03-23T06:28:44;95384.31;;;9.45;61.41
3096;BME280;1558;42.700;23.360;2024-03-23T06:31:11;95388.34;;;9.13;62.08
3096;BME280;1558;42.700;23.360;2024-03-23T06:33:38;95383.47;;;9.62;62.81
3096;BME280;1558;42.700;23.360;2024-03-23T06:36:06;95378.91;;;10.20;61.22
3096;BME280;1558;42.700;23.360;2024-03-23T06:38:34;95388.44;;;10.18;60.43
3096;BME280;1558;42.700;23.360;2024-03-23T06:41:04;95387.91;;;9.95;59.82
3096;BME280;1558;42.700;23.360;2024-03-23T06:43:30;95379.00;;;10.33;60.39
3096;BME280;1558;42.700;23.360;2024-03-23T06:45:57;95378.09;;;10.49;58.92
3096;BME280;1558;42.700;23.360;2024-03-23T06:48:24;95327.66;;;10.29;59.04
3096;BME280;1558;42.700;23.360;2024-03-23T06:50:55;95369.72;;;10.63;58.14
3096;BME280;1558;42.700;23.360;2024-03-23T06:53:22;95382.81;;;10.32;58.37
3096;BME280;1558;42.700;23.360;2024-03-23T06:55:53;95366.88;;;10.80;58.78
3096;BME280;1558;42.700;23.360;2024-03-23T06:58:23;95358.28;;;10.66;58.08
3096;BME280;1558;42.700;23.360;2024-03-23T07:00:51;95370.13;;;11.84;57.79
3096;BME280;1558;42.700;23.360;2024-03-23T07:03:17;95368.75;;;12.38;55.80
3096;BME280;1558;42.700;23.360;2024-03-23T07:05:44;95371.88;;;11.68;55.13
3096;BME280;1558;42.700;23.360;2024-03-23T07:08:12;95370.34;;;11.79;55.58
3096;BME280;1558;42.700;23.360;2024-03-23T07:10:44;95356.34;;;12.13;54.51
3096;BME280;1558;42.700;23.360;2024-03-23T07:13:10;95367.38;;;12.32;53.84
3096;BME280;1558;42.700;23.360;2024-03-23T07:15:39;95362.66;;;12.29;53.38
3096;BME280;1558;42.700;23.360;2024-03-23T07:18:05;95365.13;;;12.22;53.92
3096;BME280;1558;42.700;23.360;2024-03-23T07:20:32;95357.59;;;12.67;53.03
3096;BME280;1558;42.700;23.360;2024-03-23T07:22:58;95337.19;;;12.70;53.08
3096;BME280;1558;42.700;23.360;2024-03-23T07:25:25;95359.25;;;12.84;52.46
3096;BME280;1558;42.700;23.360;2024-03-23T07:27:53;95357.50;;;13.04;51.36
3096;BME280;1558;42.700;23.360;2024-03-23T07:30:20;95345.47;;;13.44;51.06
3096;BME280;1558;42.700;23.360;2024-03-23T07:32:48;95348.44;;;14.02;49.80
3096;BME280;1558;42.700;23.360;2024-03-23T07:35:15;95343.06;;;13.12;49.80
3096;BME280;1558;42.700;23.360;2024-03-23T07:37:42;95338.09;;;13.02;50.34
3096;BME280;1558;42.700;23.360;2024-03-23T07:40:10;95340.22;;;13.51;50.68
3096;BME280;1558;42.700;23.360;2024-03-23T07:42:37;95334.69;;;14.26;49.97
3096;BME280;1558;42.700;23.360;2024-03-23T07:45:05;95334.41;;;14.15;47.67
3096;BME280;1558;42.700;23.360;2024-03-23T07:47:31;95340.75;;;13.73;48.91
3096;BME280;1558;42.700;23.360;2024-03-23T07:50:00;95332.69;;;13.92;48.71
3096;BME280;1558;42.700;23.360;2024-03-23T07:52:28;95337.44;;;13.64;48.37
3096;BME280;1558;42.700;23.360;2024-03-23T07:54:56;95331.53;;;14.08;48.21
3096;BME280;1558;42.700;23.360;2024-03-23T07:57:22;95332.34;;;14.09;48.37
3096;BME280;1558;42.700;23.360;2024-03-23T07:59:49;95327.13;;;13.69;48.19
3096;BME280;1558;42.700;23.360;2024-03-23T08:02:15;95313.03;;;13.79;48.80
3096;BME280;1558;42.700;23.360;2024-03-23T08:04:43;95328.03;;;14.23;48.49
3096;BME280;1558;42.700;23.360;2024-03-23T08:07:10;95318.56;;;14.17;47.58
3096;BME280;1558;42.700;23.360;2024-03-23T08:09:38;95327.53;;;14.53;48.08
3096;BME280;1558;42.700;23.360;2024-03-23T08:12:04;95309.56;;;14.83;47.85
3096;BME280;1558;42.700;23.360;2024-03-23T08:14:32;95325.31;;;15.16;46.33
3096;BME280;1558;42.700;23.360;2024-03-23T08:16:58;95316.94;;;15.24;45.73
3096;BME280;1558;42.700;23.360;2024-03-23T08:19:26;95313.66;;;15.15;46.03
3096;BME280;1558;42.700;23.360;2024-03-23T08:21:52;95283.19;;;14.30;46.41
3096;BME280;1558;42.700;23.360;2024-03-23T08:24:21;95305.31;;;14.47;46.98
3096;BME280;1558;42.700;23.360;2024-03-23T08:26:47;95310.25;;;14.99;46.76
3096;BME280;1558;42.700;23.360;2024-03-23T08:29:14;95309.56;;;14.64;46.08
3096;BME280;1558;42.700;23.360;2024-03-23T08:31:40;95311.47;;;15.43;46.44
3096;BME280;1558;42.700;23.360;2024-03-23T08:34:08;95287.50;;;15.07;45.03
3096;BME280;1558;42.700;23.360;2024-03-23T08:36:34;95289.03;;;14.47;45.98
3096;BME280;1558;42.700;23.360;2024-03-23T08:39:01;95303.53;;;14.74;47.39
3096;BME280;1558;42.700;23.360;2024-03-23T08:41:28;95289.88;;;15.31;46.46
3096;BME280;1558;42.700;23.360;2024-03-23T08:43:55;95284.28;;;15.21;45.92
3096;BME280;1558;42.700;23.360;2024-03-23T08:46:22;95280.97;;;15.76;45.43
3096;BME280;1558;42.700;23.360;2024-03-23T08:48:49;95288.91;;;16.11;44.16
3096;BME280;1558;42.700;23.360;2024-03-23T08:51:16;95284.16;;;15.82;43.57
3096;BME280;1558;42.700;23.360;2024-03-23T08:53:44;95289.38;;;15.03;44.29
3096;BME280;1558;42.700;23.360;2024-03-23T08:56:11;95275.81;;;15.26;45.26
3096;BME280;1558;42.700;23.360;2024-03-23T08:58:40;95275.69;;;15.87;44.01
3096;BME280;1558;42.700;23.360;2024-03-23T09:01:07;95264.09;;;16.16;43.46
3096;BME280;1558;42.700;23.360;2024-03-23T09:03:34;95262.91;;;16.43;43.40
3096;BME280;1558;42.700;23.360;2024-03-23T09:06:02;95249.28;;;16.43;42.81
3096;BME280;1558;42.700;23.360;2024-03-23T09:08:29;95265.50;;;16.62;43.10
3096;BME280;1558;42.700;23.360;2024-03-23T09:10:55;95263.00;;;16.50;41.81
3096;BME280;1558;42.700;23.360;2024-03-23T09:13:22;95244.75;;;16.24;41.12
3096;BME280;1558;42.700;23.360;2024-03-23T09:15:51;95243.94;;;15.45;42.29
3096;BME280;1558;42.700;23.360;2024-03-23T09:18:22;95248.91;;;16.15;42.33
3096;BME280;1558;42.700;23.360;2024-03-23T09:20:48;95234.75;;;16.95;41.64
3096;BME280;1558;42.700;23.360;2024-03-23T09:23:15;95237.19;;;17.44;40.07
3096;BME280;1558;42.700;23.360;2024-03-23T09:25:41;95228.47;;;16.87;40.74
3096;BME280;1558;42.700;23.360;2024-03-23T09:28:08;95207.88;;;16.57;41.36
3096;BME280;1558;42.700;23.360;2024-03-23T09:30:35;95213.38;;;16.97;41.09
3096;BME280;1558;42.700;23.360;2024-03-23T09:33:09;95217.72;;;17.02;40.43
3096;BME280;1558;42.700;23.360;2024-03-23T09:35:37;95219.47;;;17.24;39.77
3096;BME280;1558;42.700;23.360;2024-03-23T09:38:04;95215.25;;;16.89;40.63
3096;BME280;1558;42.700;23.360;2024-03-23T09:40:31;95213.53;;;17.51;39.79
3096;BME280;1558;42.700;23.360;2024-03-23T09:42:58;95189.59;;;17.85;38.99
3096;BME280;1558;42.700;23.360;2024-03-23T09:45:27;95186.31;;;18.23;38.51
3096;BME280;1558;42.700;23.360;2024-03-23T09:47:55;95202.09;;;18.51;38.29
3096;BME280;1558;42.700;23.360;2024-03-23T09:50:23;95185.75;;;17.90;38.74
3096;BME280;1558;42.700;23.360;2024-03-23T09:52:51;95175.69;;;18.04;38.36
3096;BME280;1558;42.700;23.360;2024-03-23T09:55:17;95137.59;;;18.25;38.79
3096;BME280;1558;42.700;23.360;2024-03-23T09:57:44;95169.81;;;18.88;37.65
3096;BME280;1558;42.700;23.360;2024-03-23T10:00:12;95170.59;;;18.89;36.65
3096;BME280;1558;42.700;23.360;2024-03-23T10:02:42;95160.84;;;17.98;37.86
3096;BME280;1558;42.700;23.360;2024-03-23T10:05:20;95162.78;;;17.94;37.94
3096;BME280;1558;42.700;23.360;2024-03-23T10:07:50;95166.84;;;18.28;37.79
3096;BME280;1558;42.700;23.360;2024-03-23T10:10:17;95162.94;;;18.33;37.03
3096;BME280;1558;42.700;23.360;2024-03-23T10:12:45;95153.78;;;18.90;36.60
3096;BME280;1558;42.700;23.360;2024-03-23T10:15:18;95137.81;;;19.74;35.96
3096;BME280;1558;42.700;23.360;2024-03-23T10:17:45;95145.13;;;20.26;35.29
3096;BME280;1558;42.700;23.360;2024-03-23T10:20:12;95140.41;;;20.44;34.26
3096;BME280;1558;42.700;23.360;2024-03-23T10:22:39;95132.81;;;20.69;33.95
3096;BME280;1558;42.700;23.360;2024-03-23T10:25:11;95020.38;;;20.11;33.64
3096;BME280;1558;42.700;23.360;2024-03-23T10:27:39;95130.22;;;21.14;32.76
3096;BME280;1558;42.700;23.360;2024-03-23T10:30:09;95116.09;;;20.46;33.13
3096;BME280;1558;42.700;23.360;2024-03-23T10:32:37;95101.06;;;19.75;33.87
3096;BME280;1558;42.700;23.360;2024-03-23T10:35:17;95107.81;;;20.57;33.01
3096;BME280;1558;42.700;23.360;2024-03-23T10:37:46;95108.16;;;20.69;32.14
3096;BME280;1558;42.700;23.360;2024-03-23T10:40:16;95099.31;;;20.30;32.34
3096;BME280;1558;42.700;23.360;2024-03-23T10:42:44;95072.75;;;20.16;32.95
3096;BME280;1558;42.700;23.360;2024-03-23T10:45:10;94969.19;;;19.90;31.73
3096;BME280;1558;42.700;23.360;2024-03-23T10:47:38;95092.34;;;20.87;32.34
3096;BME280;1558;42.700;23.360;2024-03-23T10:50:05;95089.03;;;20.52;32.64
3096;BME280;1558;42.700;23.360;2024-03-23T10:52:32;95074.00;;;20.81;31.96
3096;BME280;1558;42.700;23.360;2024-03-23T10:55:02;95073.25;;;20.73;31.42
3096;BME280;1558;42.700;23.360;2024-03-23T10:57:36;95032.31;;;19.23;33.12
3096;BME280;1558;42.700;23.360;2024-03-23T11:00:05;95054.44;;;20.03;33.22
3096;BME280;1558;42.700;23.360;2024-03-23T11:02:32;95050.22;;;21.19;32.79
3096;BME280;1558;42.700;23.360;2024-03-23T11:04:59;95032.59;;;21.57;31.49
3096;BME280;1558;42.700;23.360;2024-03-23T11:07:30;95038.69;;;21.75;30.38
3096;BME280;1558;42.700;23.360;2024-03-23T11:09:57;95023.03;;;21.72;30.25
3096;BME280;1558;42.700;23.360;2024-03-23T11:12:26;95009.41;;;21.99;30.48
3096;BME280;1558;42.700;23.360;2024-03-23T11:14:55;95022.50;;;22.18;30.07
3096;BME280;1558;42.700;23.360;2024-03-23T11:17:25;95001.09;;;22.33;30.02
3096;BME280;1558;42.700;23.360;2024-03-23T11:19:55;95005.31;;;22.41;29.29
3096;BME280;1558;42.700;23.360;2024-03-23T11:22:41;94985.06;;;21.30;29.42
3096;BME280;1558;42.700;23.360;2024-03-23T11:25:15;95004.13;;;21.78;29.95
3096;BME280;1558;42.700;23.360;2024-03-23T11:27:44;95004.00;;;21.92;30.24
3096;BME280;1558;42.700;23.360;2024-03-23T11:30:16;94999.38;;;21.85;29.03
3096;BME280;1558;42.700;23.360;2024-03-23T11:32:44;94992.47;;;21.33;29.19
3096;BME280;1558;42.700;23.360;2024-03-23T11:35:11;94995.75;;;20.69;30.27
3096;BME280;1558;42.700;23.360;2024-03-23T11:38:04;94969.56;;;21.50;30.21
3096;BME280;1558;42.700;23.360;2024-03-23T11:40:31;94964.19;;;22.34;29.71
3096;BME280;1558;42.700;23.360;2024-03-23T11:42:59;94932.56;;;21.92;28.46
3096;BME280;1558;42.700;23.360;2024-03-23T11:45:27;94945.69;;;21.06;29.25
3096;BME280;1558;42.700;23.360;2024-03-23T11:48:06;94967.41;;;20.86;29.65
3096;BME280;1558;42.700;23.360;2024-03-23T11:50:33;94945.56;;;21.20;29.90
3096;BME280;1558;42.700;23.360;2024-03-23T11:53:12;94917.84;;;21.45;29.58
3096;BME280;1558;42.700;23.360;2024-03-23T11:55:41;94946.31;;;22.49;28.43
3096;BME280;1558;42.700;23.360;2024-03-23T11:58:08;94939.00;;;22.39;28.88
3096;BME280;1558;42.700;23.360;2024-03-23T12:00:36;94920.69;;;23.02;28.76
3096;BME280;1558;42.700;23.360;2024-03-23T12:03:03;94908.69;;;22.69;27.80
3096;BME280;1558;42.700;23.360;2024-03-23T12:05:30;94918.28;;;22.31;28.60
3096;BME280;1558;42.700;23.360;2024-03-23T12:08:15;94917.34;;;21.87;28.23
3096;BME280;1558;42.700;23.360;2024-03-23T12:10:44;94907.72;;;22.02;28.85
3096;BME280;1558;42.700;23.360;2024-03-23T12:13:15;94908.31;;;22.40;28.06
3096;BME280;1558;42.700;23.360;2024-03-23T12:15:44;94878.31;;;22.49;27.07
3096;BME280;1558;42.700;23.360;2024-03-23T12:18:12;94906.81;;;22.36;27.73
3096;BME280;1558;42.700;23.360;2024-03-23T12:20:38;94901.88;;;22.77;27.40
3096;BME280;1558;42.700;23.360;2024-03-23T12:23:07;94890.91;;;22.97;27.04
3096;BME280;1558;42.700;23.360;2024-03-23T12:25:34;94895.63;;;22.23;27.66
3096;BME280;1558;42.700;23.360;2024-03-23T12:28:02;94895.75;;;21.89;27.85
3096;BME280;1558;42.700;23.360;2024-03-23T12:30:28;94873.72;;;21.63;28.10
3096;BME280;1558;42.700;23.360;2024-03-23T12:32:57;94878.94;;;21.53;28.36
3096;BME280;1558;42.700;23.360;2024-03-23T12:35:23;94872.44;;;20.62;28.47
3096;BME280;1558;42.700;23.360;2024-03-23T12:37:50;94851.03;;;20.87;28.00
3096;BME280;1558;42.700;23.360;2024-03-23T12:40:16;94870.78;;;21.13;28.42
3096;BME280;1558;42.700;23.360;2024-03-23T12:42:43;94852.84;;;21.05;28.61
3096;BME280;1558;42.700;23.360;2024-03-23T12:45:10;94831.13;;;21.51;28.64
3096;BME280;1558;42.700;23.360;2024-03-23T12:47:37;94844.47;;;21.79;27.99
3096;BME280;1558;42.700;23.360;2024-03-23T12:50:05;94849.66;;;22.00;28.07
3096;BME280;1558;42.700;23.360;2024-03-23T12:52:32;94845.53;;;22.15;27.84
3096;BME280;1558;42.700;23.360;2024-03-23T12:54:59;94841.75;;;22.06;27.57
3096;BME280;1558;42.700;23.360;2024-03-23T12:57:26;94826.28;;;22.15;27.87
3096;BME280;1558;42.700;23.360;2024-03-23T12:59:53;94829.56;;;22.30;27.37
3096;BME280;1558;42.700;23.360;2024-03-23T13:02:20;94841.56;;;22.16;27.31
3096;BME280;1558;42.700;23.360;2024-03-23T13:04:49;94830.94;;;21.65;27.42
3096;BME280;1558;42.700;23.360;2024-03-23T13:07:18;94824.59;;;21.08;27.99
3096;BME280;1558;42.700;23.360;2024-03-23T13:09:45;94828.53;;;20.21;28.59
3096;BME280;1558;42.700;23.360;2024-03-23T13:12:12;94794.22;;;19.55;29.74
3096;BME280;1558;42.700;23.360;2024-03-23T13:14:39;94814.25;;;19.34;29.90
3096;BME280;1558;42.700;23.360;2024-03-23T13:17:06;94817.41;;;19.36;29.81
3096;BME280;1558;42.700;23.360;2024-03-23T13:19:33;94803.03;;;19.18;30.04
3096;BME280;1558;42.700;23.360;2024-03-23T13:22:01;94812.97;;;18.66;30.55
3096;BME280;1558;42.700;23.360;2024-03-23T13:24:28;94797.38;;;18.60;30.55
3096;BME280;1558;42.700;23.360;2024-03-23T13:26:56;94800.47;;;18.69;30.94
3096;BME280;1558;42.700;23.360;2024-03-23T13:29:23;94780.94;;;18.74;30.84
3096;BME280;1558;42.700;23.360;2024-03-23T13:31:51;94789.06;;;18.88;30.45
3096;BME280;1558;42.700;23.360;2024-03-23T13:34:18;94738.81;;;18.64;29.45
3096;BME280;1558;42.700;23.360;2024-03-23T13:36:45;94770.72;;;18.92;29.35
3096;BME280;1558;42.700;23.360;2024-03-23T13:39:13;94790.84;;;19.30;28.28
3096;BME280;1558;42.700;23.360;2024-03-23T13:41:43;94764.25;;;19.37;27.23
3096;BME280;1558;42.700;23.360;2024-03-23T13:44:11;94769.66;;;19.51;26.27
3096;BME280;1558;42.700;23.360;2024-03-23T13:46:38;94780.59;;;19.48;25.78
3096;BME280;1558;42.700;23.360;2024-03-23T13:49:05;94678.53;;;18.92;26.06
3096;BME280;1558;42.700;23.360;2024-03-23T13:51:33;94766.88;;;19.58;25.39
3096;BME280;1558;42.700;23.360;2024-03-23T13:53:59;94772.88;;;19.29;25.69
3096;BME280;1558;42.700;23.360;2024-03-23T13:56:27;94765.91;;;19.14;25.50
3096;BME280;1558;42.700;23.360;2024-03-23T13:58:55;94760.53;;;18.96;25.36
3096;BME280;1558;42.700;23.360;2024-03-23T14:01:24;94717.72;;;18.65;25.39
3096;BME280;1558;42.700;23.360;2024-03-23T14:03:50;94764.44;;;18.95;25.77
3096;BME280;1558;42.700;23.360;2024-03-23T14:06:17;94762.88;;;19.01;24.76
3096;BME280;1558;42.700;23.360;2024-03-23T14:08:43;94758.94;;;19.02;25.20
3096;BME280;1558;42.700;23.360;2024-03-23T14:11:10;94755.50;;;18.91;25.11